sensor_id;sensor_type;location;lat;lon;timestamp;P1;durP1;ratioP1;P2;durP2;ratioP2
15899;SDS011;8048;50.644;6.184;2023-06-22T00:01:02;4.33;;;3.93;;
15899;SDS011;8048;50.644;6.184;2023-06-22T00:03:27;4.23;;;3.93;;
15899;SDS011;8048;50.644;6.184;2023-06-22T00:05:53;6.10;;;4.60;;
15899;SDS011;8048;50.644;6.184;2023-06-22T00:08:19;4.83;;;4.47;;
15899;SDS011;8048;50.644;6.184;2023-06-22T00:10:45;3.90;;;3.60;;
15899;SDS011;8048;50.644;6.184;2023-06-22T00:13:11;3.70;;;3.50;;
15899;SDS011;8048;50.644;6.184;2023-06-22T00:15:38;4.13;;;3.80;;
15899;SDS011;8048;50.644;6.184;2023-06-22T00:18:08;3.60;;;3.40;;
15899;SDS011;8048;50.644;6.184;2023-06-22T00:20:36;4.20;;;3.90;;
15899;SDS011;8048;50.644;6.184;2023-06-22T00:23:02;4.37;;;4.03;;
15899;SDS011;8048;50.644;6.184;2023-06-22T00:25:34;4.93;;;4.53;;
15899;SDS011;8048;50.644;6.184;2023-06-22T00:28:00;4.20;;;3.80;;
15899;SDS011;8048;50.644;6.184;2023-06-22T00:30:26;3.80;;;3.60;;
15899;SDS011;8048;50.644;6.184;2023-06-22T00:32:52;4.00;;;3.70;;
15899;SDS011;8048;50.644;6.184;2023-06-22T00:35:17;4.27;;;3.70;;
15899;SDS011;8048;50.644;6.184;2023-06-22T00:37:43;4.73;;;4.43;;
15899;SDS011;8048;50.644;6.184;2023-06-22T00:40:09;4.13;;;3.80;;
15899;SDS011;8048;50.644;6.184;2023-06-22T00:42:38;3.93;;;3.63;;
15899;SDS011;8048;50.644;6.184;2023-06-22T00:45:04;4.13;;;3.73;;
15899;SDS011;8048;50.644;6.184;2023-06-22T00:47:30;3.80;;;3.60;;
15899;SDS011;8048;50.644;6.184;2023-06-22T00:49:57;4.03;;;3.73;;
15899;SDS011;8048;50.644;6.184;2023-06-22T00:52:23;3.70;;;3.40;;
15899;SDS011;8048;50.644;6.184;2023-06-22T00:54:53;3.47;;;3.20;;
15899;SDS011;8048;50.644;6.184;2023-06-22T00:57:20;4.40;;;4.10;;
15899;SDS011;8048;50.644;6.184;2023-06-22T00:59:47;4.20;;;3.97;;
15899;SDS011;8048;50.644;6.184;2023-06-22T01:02:13;4.43;;;3.40;;
15899;SDS011;8048;50.644;6.184;2023-06-22T01:04:39;4.30;;;3.90;;
15899;SDS011;8048;50.644;6.184;2023-06-22T01:07:10;3.73;;;3.53;;
15899;SDS011;8048;50.644;6.184;2023-06-22T01:09:49;4.17;;;3.87;;
15899;SDS011;8048;50.644;6.184;2023-06-22T01:12:17;4.33;;;3.67;;
15899;SDS011;8048;50.644;6.184;2023-06-22T01:14:49;3.70;;;3.50;;
15899;SDS011;8048;50.644;6.184;2023-06-22T01:17:20;5.50;;;3.50;;
15899;SDS011;8048;50.644;6.184;2023-06-22T01:19:47;3.33;;;3.10;;
15899;SDS011;8048;50.644;6.184;2023-06-22T01:22:20;3.97;;;3.67;;
15899;SDS011;8048;50.644;6.184;2023-06-22T01:30:07;3.73;;;3.53;;
15899;SDS011;8048;50.644;6.184;2023-06-22T01:32:36;4.40;;;4.10;;
15899;SDS011;8048;50.644;6.184;2023-06-22T01:35:05;3.73;;;3.50;;
15899;SDS011;8048;50.644;6.184;2023-06-22T01:37:32;3.03;;;2.83;;
15899;SDS011;8048;50.644;6.184;2023-06-22T01:39:59;3.10;;;2.80;;
15899;SDS011;8048;50.644;6.184;2023-06-22T01:42:25;3.17;;;2.87;;
15899;SDS011;8048;50.644;6.184;2023-06-22T01:44:52;3.73;;;3.43;;
15899;SDS011;8048;50.644;6.184;2023-06-22T01:47:19;4.63;;;4.33;;
15899;SDS011;8048;50.644;6.184;2023-06-22T01:49:49;4.03;;;3.80;;
15899;SDS011;8048;50.644;6.184;2023-06-22T01:52:18;4.20;;;3.90;;
15899;SDS011;8048;50.644;6.184;2023-06-22T01:54:46;4.67;;;4.37;;
15899;SDS011;8048;50.644;6.184;2023-06-22T01:57:11;4.03;;;3.83;;
15899;SDS011;8048;50.644;6.184;2023-06-22T01:59:39;7.23;;;3.40;;
15899;SDS011;8048;50.644;6.184;2023-06-22T02:02:10;3.97;;;3.77;;
15899;SDS011;8048;50.644;6.184;2023-06-22T02:04:42;3.93;;;3.73;;
15899;SDS011;8048;50.644;6.184;2023-06-22T02:07:31;4.30;;;4.00;;
15899;SDS011;8048;50.644;6.184;2023-06-22T02:10:02;4.30;;;4.00;;
15899;SDS011;8048;50.644;6.184;2023-06-22T02:12:31;4.30;;;4.00;;
15899;SDS011;8048;50.644;6.184;2023-06-22T02:14:58;3.53;;;3.33;;
15899;SDS011;8048;50.644;6.184;2023-06-22T02:17:25;3.20;;;3.00;;
15899;SDS011;8048;50.644;6.184;2023-06-22T02:19:51;3.70;;;3.40;;
15899;SDS011;8048;50.644;6.184;2023-06-22T02:22:17;4.30;;;4.00;;
15899;SDS011;8048;50.644;6.184;2023-06-22T02:24:43;5.03;;;3.47;;
15899;SDS011;8048;50.644;6.184;2023-06-22T02:27:09;3.67;;;3.47;;
15899;SDS011;8048;50.644;6.184;2023-06-22T02:29:35;3.97;;;3.67;;
15899;SDS011;8048;50.644;6.184;2023-06-22T02:32:01;5.70;;;3.97;;
15899;SDS011;8048;50.644;6.184;2023-06-22T02:34:27;7.07;;;3.60;;
15899;SDS011;8048;50.644;6.184;2023-06-22T02:36:52;3.90;;;3.60;;
15899;SDS011;8048;50.644;6.184;2023-06-22T02:39:22;3.97;;;3.77;;
15899;SDS011;8048;50.644;6.184;2023-06-22T02:41:49;6.23;;;4.80;;
15899;SDS011;8048;50.644;6.184;2023-06-22T02:44:15;3.80;;;3.50;;
15899;SDS011;8048;50.644;6.184;2023-06-22T02:46:41;3.60;;;3.30;;
15899;SDS011;8048;50.644;6.184;2023-06-22T02:49:07;4.13;;;3.83;;
15899;SDS011;8048;50.644;6.184;2023-06-22T02:51:33;3.33;;;3.13;;
15899;SDS011;8048;50.644;6.184;2023-06-22T02:53:59;3.50;;;3.23;;
15899;SDS011;8048;50.644;6.184;2023-06-22T02:56:25;3.90;;;3.60;;
15899;SDS011;8048;50.644;6.184;2023-06-22T02:58:51;4.40;;;4.10;;
15899;SDS011;8048;50.644;6.184;2023-06-22T03:01:17;4.70;;;3.90;;
15899;SDS011;8048;50.644;6.184;2023-06-22T03:03:49;4.43;;;4.03;;
15899;SDS011;8048;50.644;6.184;2023-06-22T03:06:14;4.33;;;4.03;;
15899;SDS011;8048;50.644;6.184;2023-06-22T03:08:40;3.67;;;3.30;;
15899;SDS011;8048;50.644;6.184;2023-06-22T03:11:06;3.57;;;3.27;;
15899;SDS011;8048;50.644;6.184;2023-06-22T03:13:33;4.10;;;3.80;;
15899;SDS011;8048;50.644;6.184;2023-06-22T03:15:58;3.80;;;3.50;;
15899;SDS011;8048;50.644;6.184;2023-06-22T03:18:24;3.87;;;3.60;;
15899;SDS011;8048;50.644;6.184;2023-06-22T03:20:50;3.60;;;3.30;;
15899;SDS011;8048;50.644;6.184;2023-06-22T03:23:15;4.43;;;4.07;;
15899;SDS011;8048;50.644;6.184;2023-06-22T03:25:42;5.27;;;4.87;;
15899;SDS011;8048;50.644;6.184;2023-06-22T03:28:09;4.13;;;3.90;;
15899;SDS011;8048;50.644;6.184;2023-06-22T03:30:35;4.13;;;3.83;;
15899;SDS011;8048;50.644;6.184;2023-06-22T03:33:01;3.23;;;3.03;;
15899;SDS011;8048;50.644;6.184;2023-06-22T03:35:27;4.17;;;3.87;;
15899;SDS011;8048;50.644;6.184;2023-06-22T03:37:53;4.17;;;3.87;;
15899;SDS011;8048;50.644;6.184;2023-06-22T03:40:18;5.77;;;5.27;;
15899;SDS011;8048;50.644;6.184;2023-06-22T03:42:45;5.07;;;4.63;;
15899;SDS011;8048;50.644;6.184;2023-06-22T03:45:11;4.70;;;4.30;;
15899;SDS011;8048;50.644;6.184;2023-06-22T03:47:36;5.33;;;4.93;;
15899;SDS011;8048;50.644;6.184;2023-06-22T03:50:02;3.33;;;3.13;;
15899;SDS011;8048;50.644;6.184;2023-06-22T03:52:28;4.23;;;4.03;;
15899;SDS011;8048;50.644;6.184;2023-06-22T03:54:55;4.13;;;3.93;;
15899;SDS011;8048;50.644;6.184;2023-06-22T03:57:20;3.83;;;3.47;;
15899;SDS011;8048;50.644;6.184;2023-06-22T03:59:46;4.07;;;3.77;;
15899;SDS011;8048;50.644;6.184;2023-06-22T04:02:12;3.60;;;3.40;;
15899;SDS011;8048;50.644;6.184;2023-06-22T04:04:37;3.90;;;3.53;;
15899;SDS011;8048;50.644;6.184;2023-06-22T04:07:04;4.33;;;4.03;;
15899;SDS011;8048;50.644;6.184;2023-06-22T04:09:30;4.27;;;3.93;;
15899;SDS011;8048;50.644;6.184;2023-06-22T04:11:56;4.17;;;3.87;;
15899;SDS011;8048;50.644;6.184;2023-06-22T04:14:21;4.37;;;4.07;;
15899;SDS011;8048;50.644;6.184;2023-06-22T04:16:47;4.00;;;3.60;;
15899;SDS011;8048;50.644;6.184;2023-06-22T04:19:12;3.43;;;3.23;;
15899;SDS011;8048;50.644;6.184;2023-06-22T04:21:42;4.73;;;4.33;;
15899;SDS011;8048;50.644;6.184;2023-06-22T04:24:09;4.53;;;4.13;;
15899;SDS011;8048;50.644;6.184;2023-06-22T04:26:35;4.10;;;3.80;;
15899;SDS011;8048;50.644;6.184;2023-06-22T04:29:06;3.80;;;3.60;;
15899;SDS011;8048;50.644;6.184;2023-06-22T04:31:33;4.43;;;4.03;;
15899;SDS011;8048;50.644;6.184;2023-06-22T04:34:03;4.73;;;4.43;;
15899;SDS011;8048;50.644;6.184;2023-06-22T04:36:40;5.60;;;5.10;;
15899;SDS011;8048;50.644;6.184;2023-06-22T04:39:10;5.07;;;4.60;;
15899;SDS011;8048;50.644;6.184;2023-06-22T04:41:36;4.57;;;4.10;;
15899;SDS011;8048;50.644;6.184;2023-06-22T04:44:10;6.23;;;5.83;;
15899;SDS011;8048;50.644;6.184;2023-06-22T04:46:55;4.43;;;4.13;;
15899;SDS011;8048;50.644;6.184;2023-06-22T04:49:27;4.93;;;4.53;;
15899;SDS011;8048;50.644;6.184;2023-06-22T04:52:03;4.67;;;4.33;;
15899;SDS011;8048;50.644;6.184;2023-06-22T04:54:30;4.70;;;4.40;;
15899;SDS011;8048;50.644;6.184;2023-06-22T04:56:58;4.47;;;4.17;;
15899;SDS011;8048;50.644;6.184;2023-06-22T04:59:28;3.87;;;3.57;;
15899;SDS011;8048;50.644;6.184;2023-06-22T05:01:55;6.50;;;5.90;;
15899;SDS011;8048;50.644;6.184;2023-06-22T05:04:22;5.93;;;5.43;;
15899;SDS011;8048;50.644;6.184;2023-06-22T05:06:51;5.93;;;5.07;;
15899;SDS011;8048;50.644;6.184;2023-06-22T05:09:17;4.70;;;4.40;;
15899;SDS011;8048;50.644;6.184;2023-06-22T05:11:44;4.70;;;4.40;;
15899;SDS011;8048;50.644;6.184;2023-06-22T05:14:10;5.73;;;5.00;;
15899;SDS011;8048;50.644;6.184;2023-06-22T05:16:36;6.70;;;6.20;;
15899;SDS011;8048;50.644;6.184;2023-06-22T05:19:02;4.93;;;4.53;;
15899;SDS011;8048;50.644;6.184;2023-06-22T05:21:31;5.50;;;5.10;;
15899;SDS011;8048;50.644;6.184;2023-06-22T05:23:57;5.20;;;4.70;;
15899;SDS011;8048;50.644;6.184;2023-06-22T05:26:34;5.43;;;5.03;;
15899;SDS011;8048;50.644;6.184;2023-06-22T05:29:00;4.90;;;4.50;;
15899;SDS011;8048;50.644;6.184;2023-06-22T05:31:27;5.37;;;4.97;;
15899;SDS011;8048;50.644;6.184;2023-06-22T05:33:53;7.40;;;6.67;;
15899;SDS011;8048;50.644;6.184;2023-06-22T05:36:20;5.63;;;5.13;;
15899;SDS011;8048;50.644;6.184;2023-06-22T05:38:46;5.00;;;4.60;;
15899;SDS011;8048;50.644;6.184;2023-06-22T05:41:12;6.27;;;5.67;;
15899;SDS011;8048;50.644;6.184;2023-06-22T05:43:38;6.10;;;5.60;;
15899;SDS011;8048;50.644;6.184;2023-06-22T05:46:04;5.90;;;5.50;;
15899;SDS011;8048;50.644;6.184;2023-06-22T05:48:30;8.83;;;7.47;;
15899;SDS011;8048;50.644;6.184;2023-06-22T05:50:56;6.87;;;6.37;;
15899;SDS011;8048;50.644;6.184;2023-06-22T05:53:22;6.50;;;5.90;;
15899;SDS011;8048;50.644;6.184;2023-06-22T05:55:48;7.13;;;6.43;;
15899;SDS011;8048;50.644;6.184;2023-06-22T05:58:13;6.27;;;5.83;;
15899;SDS011;8048;50.644;6.184;2023-06-22T06:00:40;5.07;;;4.67;;
15899;SDS011;8048;50.644;6.184;2023-06-22T06:03:09;6.10;;;5.60;;
15899;SDS011;8048;50.644;6.184;2023-06-22T06:05:35;8.50;;;6.10;;
15899;SDS011;8048;50.644;6.184;2023-06-22T06:08:02;5.33;;;4.93;;
15899;SDS011;8048;50.644;6.184;2023-06-22T06:10:30;5.50;;;5.10;;
15899;SDS011;8048;50.644;6.184;2023-06-22T06:12:56;6.97;;;6.40;;
15899;SDS011;8048;50.644;6.184;2023-06-22T06:15:22;6.70;;;6.10;;
15899;SDS011;8048;50.644;6.184;2023-06-22T06:17:51;7.93;;;7.23;;
15899;SDS011;8048;50.644;6.184;2023-06-22T06:20:18;7.93;;;7.13;;
15899;SDS011;8048;50.644;6.184;2023-06-22T06:22:45;7.77;;;6.97;;
15899;SDS011;8048;50.644;6.184;2023-06-22T06:25:12;6.10;;;5.50;;
15899;SDS011;8048;50.644;6.184;2023-06-22T06:27:41;6.73;;;6.13;;
15899;SDS011;8048;50.644;6.184;2023-06-22T06:30:17;7.43;;;6.87;;
15899;SDS011;8048;50.644;6.184;2023-06-22T06:32:44;6.07;;;5.57;;
15899;SDS011;8048;50.644;6.184;2023-06-22T06:35:13;7.43;;;6.93;;
15899;SDS011;8048;50.644;6.184;2023-06-22T06:37:41;6.30;;;5.47;;
15899;SDS011;8048;50.644;6.184;2023-06-22T06:40:09;6.10;;;5.50;;
15899;SDS011;8048;50.644;6.184;2023-06-22T06:42:39;6.53;;;5.90;;
15899;SDS011;8048;50.644;6.184;2023-06-22T06:45:07;7.47;;;6.87;;
15899;SDS011;8048;50.644;6.184;2023-06-22T06:47:34;7.53;;;6.93;;
15899;SDS011;8048;50.644;6.184;2023-06-22T06:49:59;7.33;;;6.67;;
15899;SDS011;8048;50.644;6.184;2023-06-22T06:52:25;5.60;;;5.20;;
15899;SDS011;8048;50.644;6.184;2023-06-22T06:54:51;6.70;;;6.20;;
15899;SDS011;8048;50.644;6.184;2023-06-22T06:57:20;7.37;;;6.67;;
15899;SDS011;8048;50.644;6.184;2023-06-22T06:59:47;5.70;;;5.30;;
15899;SDS011;8048;50.644;6.184;2023-06-22T07:02:14;7.53;;;6.73;;
15899;SDS011;8048;50.644;6.184;2023-06-22T07:04:41;7.60;;;6.90;;
15899;SDS011;8048;50.644;6.184;2023-06-22T07:07:06;5.90;;;5.40;;
15899;SDS011;8048;50.644;6.184;2023-06-22T07:09:32;5.80;;;5.27;;
15899;SDS011;8048;50.644;6.184;2023-06-22T07:11:58;5.73;;;5.20;;
15899;SDS011;8048;50.644;6.184;2023-06-22T07:14:23;5.17;;;4.80;;
15899;SDS011;8048;50.644;6.184;2023-06-22T07:16:49;6.50;;;5.90;;
15899;SDS011;8048;50.644;6.184;2023-06-22T07:19:15;6.93;;;6.33;;
15899;SDS011;8048;50.644;6.184;2023-06-22T07:21:40;6.30;;;5.83;;
15899;SDS011;8048;50.644;6.184;2023-06-22T07:24:06;7.73;;;7.13;;
15899;SDS011;8048;50.644;6.184;2023-06-22T07:26:32;8.20;;;7.17;;
15899;SDS011;8048;50.644;6.184;2023-06-22T07:28:58;6.43;;;5.83;;
15899;SDS011;8048;50.644;6.184;2023-06-22T07:31:24;5.60;;;5.13;;
15899;SDS011;8048;50.644;6.184;2023-06-22T07:33:50;6.87;;;6.37;;
15899;SDS011;8048;50.644;6.184;2023-06-22T07:36:17;11.57;;;8.20;;
15899;SDS011;8048;50.644;6.184;2023-06-22T07:38:42;7.93;;;7.23;;
15899;SDS011;8048;50.644;6.184;2023-06-22T07:41:09;7.67;;;7.00;;
15899;SDS011;8048;50.644;6.184;2023-06-22T07:43:34;6.57;;;5.97;;
15899;SDS011;8048;50.644;6.184;2023-06-22T07:46:02;7.50;;;6.70;;
15899;SDS011;8048;50.644;6.184;2023-06-22T07:48:28;8.17;;;7.37;;
15899;SDS011;8048;50.644;6.184;2023-06-22T07:50:54;6.40;;;5.80;;
15899;SDS011;8048;50.644;6.184;2023-06-22T07:53:20;7.27;;;6.67;;
15899;SDS011;8048;50.644;6.184;2023-06-22T07:55:48;8.43;;;7.60;;
15899;SDS011;8048;50.644;6.184;2023-06-22T07:58:14;7.13;;;6.63;;
15899;SDS011;8048;50.644;6.184;2023-06-22T08:00:40;7.60;;;6.90;;
15899;SDS011;8048;50.644;6.184;2023-06-22T08:03:06;7.90;;;7.20;;
15899;SDS011;8048;50.644;6.184;2023-06-22T08:05:32;7.40;;;6.70;;
15899;SDS011;8048;50.644;6.184;2023-06-22T08:07:58;6.93;;;6.23;;
15899;SDS011;8048;50.644;6.184;2023-06-22T08:10:23;7.03;;;6.43;;
15899;SDS011;8048;50.644;6.184;2023-06-22T08:12:49;7.90;;;7.20;;
15899;SDS011;8048;50.644;6.184;2023-06-22T08:15:15;7.50;;;6.80;;
15899;SDS011;8048;50.644;6.184;2023-06-22T08:17:40;6.43;;;6.03;;
15899;SDS011;8048;50.644;6.184;2023-06-22T08:20:06;7.60;;;6.90;;
15899;SDS011;8048;50.644;6.184;2023-06-22T08:22:42;8.13;;;7.50;;
15899;SDS011;8048;50.644;6.184;2023-06-22T08:25:09;8.70;;;8.00;;
15899;SDS011;8048;50.644;6.184;2023-06-22T08:27:35;7.53;;;7.03;;
15899;SDS011;8048;50.644;6.184;2023-06-22T08:30:01;7.57;;;6.97;;
15899;SDS011;8048;50.644;6.184;2023-06-22T08:32:27;7.27;;;6.67;;
15899;SDS011;8048;50.644;6.184;2023-06-22T08:34:54;7.40;;;6.70;;
15899;SDS011;8048;50.644;6.184;2023-06-22T08:37:20;8.67;;;7.97;;
15899;SDS011;8048;50.644;6.184;2023-06-22T08:39:49;6.63;;;6.03;;
15899;SDS011;8048;50.644;6.184;2023-06-22T08:42:15;7.47;;;6.87;;
15899;SDS011;8048;50.644;6.184;2023-06-22T08:44:41;8.97;;;8.27;;
15899;SDS011;8048;50.644;6.184;2023-06-22T08:47:06;6.93;;;6.43;;
15899;SDS011;8048;50.644;6.184;2023-06-22T08:49:32;7.70;;;7.00;;
15899;SDS011;8048;50.644;6.184;2023-06-22T08:51:58;7.87;;;7.20;;
15899;SDS011;8048;50.644;6.184;2023-06-22T08:54:23;7.20;;;6.60;;
15899;SDS011;8048;50.644;6.184;2023-06-22T08:56:49;7.20;;;6.50;;
15899;SDS011;8048;50.644;6.184;2023-06-22T08:59:15;6.90;;;6.40;;
15899;SDS011;8048;50.644;6.184;2023-06-22T09:01:40;7.50;;;6.80;;
15899;SDS011;8048;50.644;6.184;2023-06-22T09:04:10;7.77;;;7.17;;
15899;SDS011;8048;50.644;6.184;2023-06-22T09:06:36;7.60;;;7.00;;
15899;SDS011;8048;50.644;6.184;2023-06-22T09:09:06;10.23;;;6.20;;
15899;SDS011;8048;50.644;6.184;2023-06-22T09:11:32;8.10;;;7.43;;
15899;SDS011;8048;50.644;6.184;2023-06-22T09:13:57;8.10;;;7.50;;
15899;SDS011;8048;50.644;6.184;2023-06-22T09:16:23;8.10;;;7.40;;
15899;SDS011;8048;50.644;6.184;2023-06-22T09:18:48;9.33;;;8.47;;
15899;SDS011;8048;50.644;6.184;2023-06-22T09:21:14;7.27;;;6.60;;
15899;SDS011;8048;50.644;6.184;2023-06-22T09:23:40;9.40;;;7.73;;
15899;SDS011;8048;50.644;6.184;2023-06-22T09:26:05;8.80;;;8.00;;
15899;SDS011;8048;50.644;6.184;2023-06-22T09:28:31;8.87;;;8.07;;
15899;SDS011;8048;50.644;6.184;2023-06-22T09:30:58;9.43;;;8.60;;
15899;SDS011;8048;50.644;6.184;2023-06-22T09:33:25;8.37;;;7.57;;
15899;SDS011;8048;50.644;6.184;2023-06-22T09:35:51;7.90;;;7.20;;
15899;SDS011;8048;50.644;6.184;2023-06-22T09:38:17;8.80;;;8.10;;
15899;SDS011;8048;50.644;6.184;2023-06-22T09:40:42;13.20;;;7.70;;
15899;SDS011;8048;50.644;6.184;2023-06-22T09:43:08;10.77;;;9.87;;
15899;SDS011;8048;50.644;6.184;2023-06-22T09:45:34;10.63;;;9.77;;
15899;SDS011;8048;50.644;6.184;2023-06-22T09:47:59;10.67;;;9.67;;
15899;SDS011;8048;50.644;6.184;2023-06-22T09:50:25;14.60;;;9.00;;
15899;SDS011;8048;50.644;6.184;2023-06-22T09:52:51;10.90;;;9.97;;
15899;SDS011;8048;50.644;6.184;2023-06-22T09:55:20;12.27;;;11.07;;
15899;SDS011;8048;50.644;6.184;2023-06-22T09:57:46;12.27;;;11.17;;
15899;SDS011;8048;50.644;6.184;2023-06-22T10:00:12;10.13;;;8.40;;
15899;SDS011;8048;50.644;6.184;2023-06-22T10:02:40;10.03;;;9.17;;
15899;SDS011;8048;50.644;6.184;2023-06-22T10:05:06;9.33;;;8.47;;
15899;SDS011;8048;50.644;6.184;2023-06-22T10:07:32;15.00;;;11.17;;
15899;SDS011;8048;50.644;6.184;2023-06-22T10:09:58;8.27;;;7.57;;
15899;SDS011;8048;50.644;6.184;2023-06-22T10:12:24;12.53;;;11.07;;
15899;SDS011;8048;50.644;6.184;2023-06-22T10:14:50;9.10;;;8.17;;
15899;SDS011;8048;50.644;6.184;2023-06-22T10:17:16;8.50;;;7.70;;
15899;SDS011;8048;50.644;6.184;2023-06-22T10:19:41;10.87;;;9.50;;
15899;SDS011;8048;50.644;6.184;2023-06-22T10:22:07;8.07;;;7.27;;
15899;SDS011;8048;50.644;6.184;2023-06-22T10:24:33;12.27;;;9.13;;
15899;SDS011;8048;50.644;6.184;2023-06-22T10:26:58;10.03;;;9.13;;
15899;SDS011;8048;50.644;6.184;2023-06-22T10:29:24;8.27;;;7.53;;
15899;SDS011;8048;50.644;6.184;2023-06-22T10:31:50;9.67;;;8.77;;
15899;SDS011;8048;50.644;6.184;2023-06-22T10:34:15;9.93;;;9.00;;
15899;SDS011;8048;50.644;6.184;2023-06-22T10:36:41;10.73;;;9.83;;
15899;SDS011;8048;50.644;6.184;2023-06-22T10:39:06;10.00;;;9.20;;
15899;SDS011;8048;50.644;6.184;2023-06-22T10:41:32;13.43;;;11.43;;
15899;SDS011;8048;50.644;6.184;2023-06-22T10:43:58;12.07;;;10.83;;
15899;SDS011;8048;50.644;6.184;2023-06-22T10:46:24;13.10;;;11.70;;
15899;SDS011;8048;50.644;6.184;2023-06-22T10:48:50;14.97;;;10.33;;
15899;SDS011;8048;50.644;6.184;2023-06-22T10:51:19;13.30;;;11.90;;
15899;SDS011;8048;50.644;6.184;2023-06-22T10:53:45;12.90;;;11.27;;
15899;SDS011;8048;50.644;6.184;2023-06-22T10:56:10;11.27;;;10.20;;
15899;SDS011;8048;50.644;6.184;2023-06-22T10:58:36;13.30;;;12.20;;
15899;SDS011;8048;50.644;6.184;2023-06-22T11:01:01;11.67;;;10.63;;
15899;SDS011;8048;50.644;6.184;2023-06-22T11:03:28;14.20;;;12.80;;
15899;SDS011;8048;50.644;6.184;2023-06-22T11:05:54;12.50;;;11.20;;
15899;SDS011;8048;50.644;6.184;2023-06-22T11:08:19;13.07;;;11.77;;
15899;SDS011;8048;50.644;6.184;2023-06-22T11:10:45;14.87;;;13.50;;
15899;SDS011;8048;50.644;6.184;2023-06-22T11:13:10;14.70;;;13.50;;
15899;SDS011;8048;50.644;6.184;2023-06-22T11:15:36;13.03;;;11.80;;
15899;SDS011;8048;50.644;6.184;2023-06-22T11:18:02;12.80;;;11.70;;
15899;SDS011;8048;50.644;6.184;2023-06-22T11:20:30;13.40;;;12.20;;
15899;SDS011;8048;50.644;6.184;2023-06-22T11:22:56;13.70;;;12.43;;
15899;SDS011;8048;50.644;6.184;2023-06-22T11:25:22;16.17;;;13.20;;
15899;SDS011;8048;50.644;6.184;2023-06-22T11:27:47;16.73;;;14.77;;
15899;SDS011;8048;50.644;6.184;2023-06-22T11:30:13;12.93;;;11.67;;
15899;SDS011;8048;50.644;6.184;2023-06-22T11:32:39;12.50;;;11.30;;
15899;SDS011;8048;50.644;6.184;2023-06-22T11:35:04;13.10;;;11.90;;
15899;SDS011;8048;50.644;6.184;2023-06-22T11:37:30;12.57;;;11.67;;
15899;SDS011;8048;50.644;6.184;2023-06-22T11:39:56;12.53;;;11.50;;
15899;SDS011;8048;50.644;6.184;2023-06-22T11:42:23;12.70;;;11.50;;
15899;SDS011;8048;50.644;6.184;2023-06-22T11:44:49;9.80;;;9.10;;
15899;SDS011;8048;50.644;6.184;2023-06-22T11:47:14;9.63;;;8.63;;
15899;SDS011;8048;50.644;6.184;2023-06-22T11:49:40;10.43;;;9.63;;
15899;SDS011;8048;50.644;6.184;2023-06-22T11:52:06;10.00;;;9.13;;
15899;SDS011;8048;50.644;6.184;2023-06-22T11:54:32;10.40;;;9.50;;
15899;SDS011;8048;50.644;6.184;2023-06-22T11:56:58;8.73;;;8.03;;
15899;SDS011;8048;50.644;6.184;2023-06-22T11:59:24;9.37;;;8.57;;
15899;SDS011;8048;50.644;6.184;2023-06-22T12:01:49;8.87;;;8.10;;
15899;SDS011;8048;50.644;6.184;2023-06-22T12:04:16;8.40;;;7.80;;
15899;SDS011;8048;50.644;6.184;2023-06-22T12:06:42;8.70;;;8.00;;
15899;SDS011;8048;50.644;6.184;2023-06-22T12:09:08;9.30;;;8.60;;
15899;SDS011;8048;50.644;6.184;2023-06-22T12:11:34;10.80;;;8.47;;
15899;SDS011;8048;50.644;6.184;2023-06-22T12:14:00;8.43;;;7.50;;
15899;SDS011;8048;50.644;6.184;2023-06-22T12:16:30;10.20;;;9.40;;
15899;SDS011;8048;50.644;6.184;2023-06-22T12:18:56;11.10;;;10.10;;
15899;SDS011;8048;50.644;6.184;2023-06-22T12:21:21;11.47;;;10.40;;
15899;SDS011;8048;50.644;6.184;2023-06-22T12:23:47;9.23;;;8.43;;
15899;SDS011;8048;50.644;6.184;2023-06-22T12:26:13;10.10;;;9.30;;
15899;SDS011;8048;50.644;6.184;2023-06-22T12:28:38;10.30;;;9.50;;
15899;SDS011;8048;50.644;6.184;2023-06-22T12:31:04;11.93;;;9.57;;
15899;SDS011;8048;50.644;6.184;2023-06-22T12:33:30;11.40;;;9.00;;
15899;SDS011;8048;50.644;6.184;2023-06-22T12:35:55;11.60;;;10.60;;
15899;SDS011;8048;50.644;6.184;2023-06-22T12:38:21;10.10;;;9.20;;
15899;SDS011;8048;50.644;6.184;2023-06-22T12:40:47;8.50;;;7.70;;
15899;SDS011;8048;50.644;6.184;2023-06-22T12:43:14;8.10;;;7.50;;
15899;SDS011;8048;50.644;6.184;2023-06-22T12:45:40;8.13;;;7.37;;
15899;SDS011;8048;50.644;6.184;2023-06-22T12:48:05;8.30;;;7.37;;
15899;SDS011;8048;50.644;6.184;2023-06-22T12:50:31;7.80;;;7.10;;
15899;SDS011;8048;50.644;6.184;2023-06-22T12:52:57;8.47;;;7.80;;
15899;SDS011;8048;50.644;6.184;2023-06-22T12:55:23;8.77;;;8.00;;
15899;SDS011;8048;50.644;6.184;2023-06-22T12:57:48;8.60;;;7.87;;
15899;SDS011;8048;50.644;6.184;2023-06-22T13:00:14;10.37;;;9.57;;
15899;SDS011;8048;50.644;6.184;2023-06-22T13:02:40;7.87;;;7.30;;
15899;SDS011;8048;50.644;6.184;2023-06-22T13:05:06;9.80;;;9.00;;
15899;SDS011;8048;50.644;6.184;2023-06-22T13:07:32;9.00;;;8.23;;
15899;SDS011;8048;50.644;6.184;2023-06-22T13:09:58;7.73;;;7.10;;
15899;SDS011;8048;50.644;6.184;2023-06-22T13:12:23;8.37;;;7.67;;
15899;SDS011;8048;50.644;6.184;2023-06-22T13:14:49;9.07;;;8.27;;
15899;SDS011;8048;50.644;6.184;2023-06-22T13:17:15;8.20;;;7.40;;
15899;SDS011;8048;50.644;6.184;2023-06-22T13:19:41;8.63;;;7.93;;
15899;SDS011;8048;50.644;6.184;2023-06-22T13:24:54;8.33;;;7.60;;
15899;SDS011;8048;50.644;6.184;2023-06-22T13:27:20;8.63;;;7.83;;
15899;SDS011;8048;50.644;6.184;2023-06-22T13:29:45;8.83;;;8.03;;
15899;SDS011;8048;50.644;6.184;2023-06-22T13:32:11;12.30;;;11.00;;
15899;SDS011;8048;50.644;6.184;2023-06-22T13:34:37;11.63;;;10.63;;
15899;SDS011;8048;50.644;6.184;2023-06-22T13:37:02;15.07;;;13.57;;
15899;SDS011;8048;50.644;6.184;2023-06-22T13:39:28;15.27;;;13.67;;
15899;SDS011;8048;50.644;6.184;2023-06-22T13:41:54;13.47;;;12.33;;
15899;SDS011;8048;50.644;6.184;2023-06-22T13:44:19;20.50;;;15.50;;
15899;SDS011;8048;50.644;6.184;2023-06-22T13:46:47;13.03;;;11.83;;
15899;SDS011;8048;50.644;6.184;2023-06-22T13:49:12;16.00;;;14.60;;
15899;SDS011;8048;50.644;6.184;2023-06-22T13:51:38;13.20;;;11.80;;
15899;SDS011;8048;50.644;6.184;2023-06-22T13:54:04;12.80;;;11.60;;
15899;SDS011;8048;50.644;6.184;2023-06-22T13:56:29;13.87;;;12.50;;
15899;SDS011;8048;50.644;6.184;2023-06-22T13:58:55;16.93;;;11.73;;
15899;SDS011;8048;50.644;6.184;2023-06-22T14:01:20;12.20;;;11.30;;
15899;SDS011;8048;50.644;6.184;2023-06-22T14:03:47;17.13;;;14.07;;
15899;SDS011;8048;50.644;6.184;2023-06-22T14:06:13;14.03;;;12.73;;
15899;SDS011;8048;50.644;6.184;2023-06-22T14:08:39;12.50;;;11.37;;
15899;SDS011;8048;50.644;6.184;2023-06-22T14:11:05;13.10;;;11.83;;
15899;SDS011;8048;50.644;6.184;2023-06-22T14:13:30;13.50;;;12.30;;
15899;SDS011;8048;50.644;6.184;2023-06-22T14:15:56;13.20;;;12.10;;
15899;SDS011;8048;50.644;6.184;2023-06-22T14:18:21;13.20;;;12.00;;
15899;SDS011;8048;50.644;6.184;2023-06-22T14:20:48;16.17;;;14.30;;
15899;SDS011;8048;50.644;6.184;2023-06-22T14:23:14;16.77;;;12.00;;
15899;SDS011;8048;50.644;6.184;2023-06-22T14:25:40;14.50;;;13.10;;
15899;SDS011;8048;50.644;6.184;2023-06-22T14:28:05;14.07;;;12.73;;
15899;SDS011;8048;50.644;6.184;2023-06-22T14:30:31;16.47;;;14.80;;
15899;SDS011;8048;50.644;6.184;2023-06-22T14:32:57;15.47;;;14.00;;
15899;SDS011;8048;50.644;6.184;2023-06-22T14:35:22;13.83;;;12.43;;
15899;SDS011;8048;50.644;6.184;2023-06-22T14:37:51;18.77;;;16.87;;
15899;SDS011;8048;50.644;6.184;2023-06-22T14:40:17;19.23;;;17.30;;
15899;SDS011;8048;50.644;6.184;2023-06-22T14:42:42;17.33;;;15.53;;
15899;SDS011;8048;50.644;6.184;2023-06-22T14:45:08;18.43;;;16.43;;
15899;SDS011;8048;50.644;6.184;2023-06-22T14:47:34;17.73;;;15.70;;
15899;SDS011;8048;50.644;6.184;2023-06-22T14:49:59;19.77;;;18.00;;
15899;SDS011;8048;50.644;6.184;2023-06-22T14:52:25;22.27;;;20.07;;
15899;SDS011;8048;50.644;6.184;2023-06-22T14:54:52;18.87;;;17.10;;
15899;SDS011;8048;50.644;6.184;2023-06-22T14:57:18;18.70;;;16.10;;
15899;SDS011;8048;50.644;6.184;2023-06-22T14:59:45;10.80;;;9.90;;